メインページ
METAR-TAF:

METAR-TAF

空港 :

バンコク, タイ

ドンムアン空港

緯度: 13-54-45N, 経度: 100-36-24E, 海抜: 4m

現時点の気象観測

当レポートは39分前の01:30(UTC)に作成
北/北東の風 3kt、北/北西から北東の間で変化する
気温 27°C
湿度 79%
気圧 1010 hPa
視程: 3000m

METAR: VTBD 220130Z 02003KT 340V040 3000 BR NSC 27/23 Q1010 BECMG TL0230 5000 BR

時間: 09:09 (02:09 UTC)

予報

当レポートは3時間9分前の23:00(UTC)に作成
予報は22日の 00時(UTC)から 23日の 06時(UTC)まで有効
東/南東の風 3kt
視程: 5000m
高度4000ftの雲はほとんどない
22日の 02時(UTC)から 22日の 04時(UTC)まで徐々に
南東の風 5kt
視程10km以上
高度2500ftの雲はほとんどない
22日の 22時(UTC)から 22日の 24時(UTC)まで徐々に
東/南東の風 5kt
視程: 5000m
23日の 02時(UTC)から 23日の 04時(UTC)まで徐々に
南/南西の風 8kt
視程10km以上

TAF: VTBD 212300Z 2200/2306 12003KT 5000 BR FEW040 BECMG 2202/2204 14005KT 9999 NSW FEW025 BECMG 2222/2224 12005KT 5000 BR BECMG 2302/2304 20008KT 9999 NSW

4,000以上の空港の気象観測と天気予報(METAR報とTAF報)

利用可能な観測所は地図上に黄色い丸と赤い丸で示す。

丸の上にカーソルを重ねると観測所名を参照できる。

次にクリックすると気象観測と天気予報を参照できる。

マップの切り替え:黒色「×」印の緑ボタンをクリックして拡大、「-」印の緑ボタンをクリックして縮小、緑色の三角印をクリックして隣りの地図に切り替え


METAR-TAF: